sensor_id;sensor_type;location;lat;lon;timestamp;P1;durP1;ratioP1;P2;durP2;ratioP2
15996;SDS011;8103;51.340;12.326;2023-07-13T00:01:48;2.30;;;1.42;;
15996;SDS011;8103;51.340;12.326;2023-07-13T00:04:19;2.17;;;1.58;;
15996;SDS011;8103;51.340;12.326;2023-07-13T00:06:47;1.83;;;1.50;;
15996;SDS011;8103;51.340;12.326;2023-07-13T00:09:14;6.22;;;2.60;;
15996;SDS011;8103;51.340;12.326;2023-07-13T00:11:43;5.90;;;3.67;;
15996;SDS011;8103;51.340;12.326;2023-07-13T00:14:11;7.05;;;4.70;;
15996;SDS011;8103;51.340;12.326;2023-07-13T00:16:38;6.45;;;4.40;;
15996;SDS011;8103;51.340;12.326;2023-07-13T00:19:09;5.15;;;3.45;;
15996;SDS011;8103;51.340;12.326;2023-07-13T00:21:39;4.10;;;2.53;;
15996;SDS011;8103;51.340;12.326;2023-07-13T00:24:07;3.95;;;2.00;;
15996;SDS011;8103;51.340;12.326;2023-07-13T00:26:39;3.50;;;2.20;;
15996;SDS011;8103;51.340;12.326;2023-07-13T00:29:06;3.60;;;2.00;;
15996;SDS011;8103;51.340;12.326;2023-07-13T00:31:34;3.80;;;1.83;;
15996;SDS011;8103;51.340;12.326;2023-07-13T00:34:02;4.88;;;2.03;;
15996;SDS011;8103;51.340;12.326;2023-07-13T00:36:29;3.47;;;2.03;;
15996;SDS011;8103;51.340;12.326;2023-07-13T00:38:59;5.55;;;2.00;;
15996;SDS011;8103;51.340;12.326;2023-07-13T00:41:26;3.63;;;2.05;;
15996;SDS011;8103;51.340;12.326;2023-07-13T00:43:52;6.65;;;1.77;;
15996;SDS011;8103;51.340;12.326;2023-07-13T00:46:24;3.50;;;1.45;;
15996;SDS011;8103;51.340;12.326;2023-07-13T00:48:56;4.05;;;1.30;;
15996;SDS011;8103;51.340;12.326;2023-07-13T00:51:34;8.40;;;1.92;;
15996;SDS011;8103;51.340;12.326;2023-07-13T00:54:15;5.55;;;1.70;;
15996;SDS011;8103;51.340;12.326;2023-07-13T00:56:49;5.00;;;1.50;;
15996;SDS011;8103;51.340;12.326;2023-07-13T00:59:18;1.75;;;1.30;;
15996;SDS011;8103;51.340;12.326;2023-07-13T01:01:48;2.38;;;1.20;;
15996;SDS011;8103;51.340;12.326;2023-07-13T01:04:16;2.45;;;1.20;;
15996;SDS011;8103;51.340;12.326;2023-07-13T01:06:43;4.40;;;1.33;;
15996;SDS011;8103;51.340;12.326;2023-07-13T01:09:11;2.22;;;1.30;;
15996;SDS011;8103;51.340;12.326;2023-07-13T01:11:38;2.20;;;1.48;;
15996;SDS011;8103;51.340;12.326;2023-07-13T01:14:05;3.05;;;1.33;;
15996;SDS011;8103;51.340;12.326;2023-07-13T01:16:33;1.23;;;0.98;;
15996;SDS011;8103;51.340;12.326;2023-07-13T01:19:01;3.60;;;1.20;;
15996;SDS011;8103;51.340;12.326;2023-07-13T01:21:34;2.30;;;1.17;;
15996;SDS011;8103;51.340;12.326;2023-07-13T01:24:01;2.45;;;1.40;;
15996;SDS011;8103;51.340;12.326;2023-07-13T01:26:28;1.38;;;1.02;;
15996;SDS011;8103;51.340;12.326;2023-07-13T01:28:55;3.13;;;1.38;;
15996;SDS011;8103;51.340;12.326;2023-07-13T01:31:23;3.55;;;1.30;;
15996;SDS011;8103;51.340;12.326;2023-07-13T01:33:49;2.55;;;1.10;;
15996;SDS011;8103;51.340;12.326;2023-07-13T01:36:16;2.78;;;1.20;;
15996;SDS011;8103;51.340;12.326;2023-07-13T01:38:43;2.20;;;1.20;;
15996;SDS011;8103;51.340;12.326;2023-07-13T01:41:10;2.88;;;1.10;;
15996;SDS011;8103;51.340;12.326;2023-07-13T01:43:37;2.85;;;1.25;;
15996;SDS011;8103;51.340;12.326;2023-07-13T01:46:03;2.70;;;1.25;;
15996;SDS011;8103;51.340;12.326;2023-07-13T01:48:47;3.25;;;1.23;;
15996;SDS011;8103;51.340;12.326;2023-07-13T01:51:15;2.40;;;1.70;;
15996;SDS011;8103;51.340;12.326;2023-07-13T01:53:42;1.60;;;1.05;;
15996;SDS011;8103;51.340;12.326;2023-07-13T01:56:08;2.58;;;1.23;;
15996;SDS011;8103;51.340;12.326;2023-07-13T01:58:35;1.95;;;1.05;;
15996;SDS011;8103;51.340;12.326;2023-07-13T02:01:02;5.07;;;1.60;;
15996;SDS011;8103;51.340;12.326;2023-07-13T02:03:29;1.42;;;1.23;;
15996;SDS011;8103;51.340;12.326;2023-07-13T02:05:56;2.17;;;1.25;;
15996;SDS011;8103;51.340;12.326;2023-07-13T02:08:23;2.38;;;1.30;;
15996;SDS011;8103;51.340;12.326;2023-07-13T02:10:49;2.55;;;1.15;;
15996;SDS011;8103;51.340;12.326;2023-07-13T02:13:16;3.38;;;1.20;;
15996;SDS011;8103;51.340;12.326;2023-07-13T02:15:43;3.42;;;1.25;;
15996;SDS011;8103;51.340;12.326;2023-07-13T02:18:10;2.08;;;1.20;;
15996;SDS011;8103;51.340;12.326;2023-07-13T02:20:36;3.05;;;1.30;;
15996;SDS011;8103;51.340;12.326;2023-07-13T02:23:03;2.45;;;1.30;;
15996;SDS011;8103;51.340;12.326;2023-07-13T02:25:31;2.97;;;1.27;;
15996;SDS011;8103;51.340;12.326;2023-07-13T02:27:58;3.30;;;1.23;;
15996;SDS011;8103;51.340;12.326;2023-07-13T02:30:25;3.58;;;1.08;;
15996;SDS011;8103;51.340;12.326;2023-07-13T02:32:52;4.57;;;2.00;;
15996;SDS011;8103;51.340;12.326;2023-07-13T02:35:19;3.45;;;1.40;;
15996;SDS011;8103;51.340;12.326;2023-07-13T02:37:46;3.55;;;1.40;;
15996;SDS011;8103;51.340;12.326;2023-07-13T02:40:12;5.85;;;1.80;;
15996;SDS011;8103;51.340;12.326;2023-07-13T02:42:39;2.53;;;1.38;;
15996;SDS011;8103;51.340;12.326;2023-07-13T02:45:07;3.45;;;1.30;;
15996;SDS011;8103;51.340;12.326;2023-07-13T02:47:35;4.28;;;1.63;;
15996;SDS011;8103;51.340;12.326;2023-07-13T02:50:02;2.03;;;1.30;;
15996;SDS011;8103;51.340;12.326;2023-07-13T02:52:29;3.05;;;1.20;;
15996;SDS011;8103;51.340;12.326;2023-07-13T02:54:56;2.05;;;1.25;;
15996;SDS011;8103;51.340;12.326;2023-07-13T02:57:22;1.80;;;1.17;;
15996;SDS011;8103;51.340;12.326;2023-07-13T02:59:49;2.58;;;1.20;;
15996;SDS011;8103;51.340;12.326;2023-07-13T03:02:16;2.22;;;1.55;;
15996;SDS011;8103;51.340;12.326;2023-07-13T03:04:43;2.22;;;1.55;;
15996;SDS011;8103;51.340;12.326;2023-07-13T03:07:10;2.83;;;1.45;;
15996;SDS011;8103;51.340;12.326;2023-07-13T03:09:37;3.70;;;1.45;;
15996;SDS011;8103;51.340;12.326;2023-07-13T03:12:04;2.97;;;1.50;;
15996;SDS011;8103;51.340;12.326;2023-07-13T03:14:31;5.68;;;1.60;;
15996;SDS011;8103;51.340;12.326;2023-07-13T03:16:58;4.32;;;1.60;;
15996;SDS011;8103;51.340;12.326;2023-07-13T03:19:24;5.05;;;1.13;;
15996;SDS011;8103;51.340;12.326;2023-07-13T03:21:51;2.75;;;1.23;;
15996;SDS011;8103;51.340;12.326;2023-07-13T03:24:18;3.30;;;1.75;;
15996;SDS011;8103;51.340;12.326;2023-07-13T03:26:44;3.58;;;1.50;;
15996;SDS011;8103;51.340;12.326;2023-07-13T03:29:11;4.57;;;1.67;;
15996;SDS011;8103;51.340;12.326;2023-07-13T03:31:38;3.55;;;2.00;;
15996;SDS011;8103;51.340;12.326;2023-07-13T03:34:05;5.30;;;2.28;;
15996;SDS011;8103;51.340;12.326;2023-07-13T03:36:32;2.72;;;1.70;;
15996;SDS011;8103;51.340;12.326;2023-07-13T03:39:00;3.25;;;1.90;;
15996;SDS011;8103;51.340;12.326;2023-07-13T03:41:27;2.60;;;1.42;;
15996;SDS011;8103;51.340;12.326;2023-07-13T03:43:54;1.98;;;1.70;;
15996;SDS011;8103;51.340;12.326;2023-07-13T03:46:21;4.07;;;1.80;;
15996;SDS011;8103;51.340;12.326;2023-07-13T03:48:47;3.00;;;1.63;;
15996;SDS011;8103;51.340;12.326;2023-07-13T03:51:15;6.50;;;1.98;;
15996;SDS011;8103;51.340;12.326;2023-07-13T03:53:43;2.45;;;1.50;;
15996;SDS011;8103;51.340;12.326;2023-07-13T03:56:12;1.92;;;1.70;;
15996;SDS011;8103;51.340;12.326;2023-07-13T03:58:42;5.35;;;1.90;;
15996;SDS011;8103;51.340;12.326;2023-07-13T04:01:11;3.38;;;1.75;;
15996;SDS011;8103;51.340;12.326;2023-07-13T04:03:38;3.28;;;1.80;;
15996;SDS011;8103;51.340;12.326;2023-07-13T04:06:07;3.80;;;1.80;;
15996;SDS011;8103;51.340;12.326;2023-07-13T04:08:41;1.38;;;1.23;;
15996;SDS011;8103;51.340;12.326;2023-07-13T04:11:08;2.38;;;1.70;;
15996;SDS011;8103;51.340;12.326;2023-07-13T04:13:35;4.88;;;1.92;;
15996;SDS011;8103;51.340;12.326;2023-07-13T04:16:02;3.03;;;1.75;;
15996;SDS011;8103;51.340;12.326;2023-07-13T04:18:29;5.03;;;2.25;;
15996;SDS011;8103;51.340;12.326;2023-07-13T04:20:55;1.85;;;1.42;;
15996;SDS011;8103;51.340;12.326;2023-07-13T04:23:22;3.67;;;1.83;;
15996;SDS011;8103;51.340;12.326;2023-07-13T04:25:49;2.42;;;1.45;;
15996;SDS011;8103;51.340;12.326;2023-07-13T04:28:22;5.00;;;2.33;;
15996;SDS011;8103;51.340;12.326;2023-07-13T04:30:50;6.57;;;1.90;;
15996;SDS011;8103;51.340;12.326;2023-07-13T04:33:17;3.78;;;1.95;;
15996;SDS011;8103;51.340;12.326;2023-07-13T04:35:44;4.18;;;2.63;;
15996;SDS011;8103;51.340;12.326;2023-07-13T04:38:13;3.15;;;2.08;;
15996;SDS011;8103;51.340;12.326;2023-07-13T04:40:42;4.13;;;2.28;;
15996;SDS011;8103;51.340;12.326;2023-07-13T04:43:11;4.47;;;1.63;;
15996;SDS011;8103;51.340;12.326;2023-07-13T04:45:38;3.92;;;2.20;;
15996;SDS011;8103;51.340;12.326;2023-07-13T04:48:04;1.90;;;1.70;;
15996;SDS011;8103;51.340;12.326;2023-07-13T04:50:31;2.72;;;1.40;;
15996;SDS011;8103;51.340;12.326;2023-07-13T04:52:58;3.47;;;1.80;;
15996;SDS011;8103;51.340;12.326;2023-07-13T04:55:25;4.32;;;2.05;;
15996;SDS011;8103;51.340;12.326;2023-07-13T04:57:57;3.97;;;2.33;;
15996;SDS011;8103;51.340;12.326;2023-07-13T05:00:25;8.40;;;2.10;;
15996;SDS011;8103;51.340;12.326;2023-07-13T05:02:53;3.95;;;1.90;;
15996;SDS011;8103;51.340;12.326;2023-07-13T05:05:25;4.47;;;2.28;;
15996;SDS011;8103;51.340;12.326;2023-07-13T05:07:52;4.70;;;2.20;;
15996;SDS011;8103;51.340;12.326;2023-07-13T05:10:19;3.20;;;2.30;;
15996;SDS011;8103;51.340;12.326;2023-07-13T05:12:46;2.50;;;1.95;;
15996;SDS011;8103;51.340;12.326;2023-07-13T05:15:13;4.10;;;2.03;;
15996;SDS011;8103;51.340;12.326;2023-07-13T05:17:41;4.07;;;1.88;;
15996;SDS011;8103;51.340;12.326;2023-07-13T05:20:08;3.80;;;2.00;;
15996;SDS011;8103;51.340;12.326;2023-07-13T05:22:36;4.30;;;2.03;;
15996;SDS011;8103;51.340;12.326;2023-07-13T05:25:04;3.20;;;1.85;;
15996;SDS011;8103;51.340;12.326;2023-07-13T05:27:32;3.70;;;2.03;;
15996;SDS011;8103;51.340;12.326;2023-07-13T05:30:00;3.05;;;1.52;;
15996;SDS011;8103;51.340;12.326;2023-07-13T05:32:27;6.75;;;2.20;;
15996;SDS011;8103;51.340;12.326;2023-07-13T05:34:54;1.88;;;1.60;;
15996;SDS011;8103;51.340;12.326;2023-07-13T05:37:21;4.53;;;1.60;;
15996;SDS011;8103;51.340;12.326;2023-07-13T05:39:47;2.05;;;1.58;;
15996;SDS011;8103;51.340;12.326;2023-07-13T05:42:14;2.97;;;1.83;;
15996;SDS011;8103;51.340;12.326;2023-07-13T05:44:41;6.32;;;2.13;;
15996;SDS011;8103;51.340;12.326;2023-07-13T05:47:08;2.13;;;1.40;;
15996;SDS011;8103;51.340;12.326;2023-07-13T05:49:35;4.55;;;1.88;;
15996;SDS011;8103;51.340;12.326;2023-07-13T05:52:01;2.92;;;1.67;;
15996;SDS011;8103;51.340;12.326;2023-07-13T05:54:28;1.85;;;1.60;;
15996;SDS011;8103;51.340;12.326;2023-07-13T05:56:56;2.97;;;2.08;;
15996;SDS011;8103;51.340;12.326;2023-07-13T05:59:22;12.18;;;2.30;;
15996;SDS011;8103;51.340;12.326;2023-07-13T06:01:49;2.17;;;1.65;;
15996;SDS011;8103;51.340;12.326;2023-07-13T06:04:19;3.10;;;1.67;;
15996;SDS011;8103;51.340;12.326;2023-07-13T06:06:47;7.80;;;2.08;;
15996;SDS011;8103;51.340;12.326;2023-07-13T06:09:14;8.30;;;2.50;;
15996;SDS011;8103;51.340;12.326;2023-07-13T06:11:42;6.80;;;2.85;;
15996;SDS011;8103;51.340;12.326;2023-07-13T06:14:09;4.35;;;1.92;;
15996;SDS011;8103;51.340;12.326;2023-07-13T06:16:35;9.73;;;2.90;;
15996;SDS011;8103;51.340;12.326;2023-07-13T06:19:02;10.60;;;2.70;;
15996;SDS011;8103;51.340;12.326;2023-07-13T06:21:29;5.50;;;1.80;;
15996;SDS011;8103;51.340;12.326;2023-07-13T06:23:55;5.07;;;1.85;;
15996;SDS011;8103;51.340;12.326;2023-07-13T06:26:22;6.07;;;2.60;;
15996;SDS011;8103;51.340;12.326;2023-07-13T06:28:49;3.65;;;1.50;;
15996;SDS011;8103;51.340;12.326;2023-07-13T06:31:16;2.97;;;1.88;;
15996;SDS011;8103;51.340;12.326;2023-07-13T06:33:43;2.17;;;1.60;;
15996;SDS011;8103;51.340;12.326;2023-07-13T06:36:10;3.65;;;2.00;;
15996;SDS011;8103;51.340;12.326;2023-07-13T06:38:37;3.75;;;1.63;;
15996;SDS011;8103;51.340;12.326;2023-07-13T06:41:06;5.60;;;2.13;;
15996;SDS011;8103;51.340;12.326;2023-07-13T06:43:33;4.80;;;2.15;;
15996;SDS011;8103;51.340;12.326;2023-07-13T06:46:00;3.65;;;1.80;;
15996;SDS011;8103;51.340;12.326;2023-07-13T06:48:29;3.83;;;2.05;;
15996;SDS011;8103;51.340;12.326;2023-07-13T06:50:56;5.70;;;1.83;;
15996;SDS011;8103;51.340;12.326;2023-07-13T06:53:23;4.18;;;1.55;;
15996;SDS011;8103;51.340;12.326;2023-07-13T06:55:50;3.20;;;1.42;;
15996;SDS011;8103;51.340;12.326;2023-07-13T06:58:18;3.55;;;1.75;;
15996;SDS011;8103;51.340;12.326;2023-07-13T07:00:45;2.97;;;1.17;;
15996;SDS011;8103;51.340;12.326;2023-07-13T07:03:15;7.05;;;1.95;;
15996;SDS011;8103;51.340;12.326;2023-07-13T07:05:44;5.85;;;1.70;;
15996;SDS011;8103;51.340;12.326;2023-07-13T07:08:12;2.08;;;1.48;;
15996;SDS011;8103;51.340;12.326;2023-07-13T07:10:39;5.15;;;2.10;;
15996;SDS011;8103;51.340;12.326;2023-07-13T07:13:06;3.25;;;1.30;;
15996;SDS011;8103;51.340;12.326;2023-07-13T07:15:34;2.47;;;1.50;;
15996;SDS011;8103;51.340;12.326;2023-07-13T07:18:01;2.58;;;1.30;;
15996;SDS011;8103;51.340;12.326;2023-07-13T07:20:27;2.22;;;1.60;;
15996;SDS011;8103;51.340;12.326;2023-07-13T07:22:54;4.45;;;1.92;;
15996;SDS011;8103;51.340;12.326;2023-07-13T07:25:21;2.95;;;1.50;;
15996;SDS011;8103;51.340;12.326;2023-07-13T07:27:47;4.55;;;1.55;;
15996;SDS011;8103;51.340;12.326;2023-07-13T07:30:17;3.85;;;2.05;;
15996;SDS011;8103;51.340;12.326;2023-07-13T07:32:47;5.40;;;1.77;;
15996;SDS011;8103;51.340;12.326;2023-07-13T07:35:16;8.20;;;2.17;;
15996;SDS011;8103;51.340;12.326;2023-07-13T07:37:43;2.83;;;1.48;;
15996;SDS011;8103;51.340;12.326;2023-07-13T07:40:13;2.38;;;1.80;;
15996;SDS011;8103;51.340;12.326;2023-07-13T07:42:43;3.80;;;1.33;;
15996;SDS011;8103;51.340;12.326;2023-07-13T07:45:10;5.50;;;2.00;;
15996;SDS011;8103;51.340;12.326;2023-07-13T07:47:37;2.85;;;1.35;;
15996;SDS011;8103;51.340;12.326;2023-07-13T07:50:05;3.50;;;1.25;;
15996;SDS011;8103;51.340;12.326;2023-07-13T07:52:32;2.70;;;1.55;;
15996;SDS011;8103;51.340;12.326;2023-07-13T07:54:58;3.70;;;1.38;;
15996;SDS011;8103;51.340;12.326;2023-07-13T07:57:28;2.45;;;1.00;;
15996;SDS011;8103;51.340;12.326;2023-07-13T08:00:15;2.47;;;1.40;;
15996;SDS011;8103;51.340;12.326;2023-07-13T08:02:45;11.25;;;2.08;;
15996;SDS011;8103;51.340;12.326;2023-07-13T08:05:15;2.72;;;1.48;;
15996;SDS011;8103;51.340;12.326;2023-07-13T08:07:45;2.50;;;1.40;;
15996;SDS011;8103;51.340;12.326;2023-07-13T08:10:11;6.88;;;1.50;;
15996;SDS011;8103;51.340;12.326;2023-07-13T08:12:39;4.97;;;1.65;;
15996;SDS011;8103;51.340;12.326;2023-07-13T08:15:11;4.70;;;1.65;;
15996;SDS011;8103;51.340;12.326;2023-07-13T08:17:39;3.60;;;1.40;;
15996;SDS011;8103;51.340;12.326;2023-07-13T08:20:07;6.05;;;1.70;;
15996;SDS011;8103;51.340;12.326;2023-07-13T08:22:35;3.20;;;1.45;;
15996;SDS011;8103;51.340;12.326;2023-07-13T08:25:02;2.63;;;1.27;;
15996;SDS011;8103;51.340;12.326;2023-07-13T08:27:29;2.58;;;1.25;;
15996;SDS011;8103;51.340;12.326;2023-07-13T08:29:56;7.72;;;1.95;;
15996;SDS011;8103;51.340;12.326;2023-07-13T08:32:23;4.20;;;1.63;;
15996;SDS011;8103;51.340;12.326;2023-07-13T08:34:50;4.40;;;1.40;;
15996;SDS011;8103;51.340;12.326;2023-07-13T08:37:18;2.97;;;1.38;;
15996;SDS011;8103;51.340;12.326;2023-07-13T08:39:45;2.85;;;1.45;;
15996;SDS011;8103;51.340;12.326;2023-07-13T08:42:15;3.78;;;1.75;;
15996;SDS011;8103;51.340;12.326;2023-07-13T08:44:57;3.17;;;1.70;;
15996;SDS011;8103;51.340;12.326;2023-07-13T08:47:35;6.47;;;1.45;;
15996;SDS011;8103;51.340;12.326;2023-07-13T08:50:05;1.55;;;1.00;;
15996;SDS011;8103;51.340;12.326;2023-07-13T08:52:40;3.55;;;1.27;;
15996;SDS011;8103;51.340;12.326;2023-07-13T08:55:13;6.22;;;1.48;;
15996;SDS011;8103;51.340;12.326;2023-07-13T08:57:45;3.35;;;1.30;;
15996;SDS011;8103;51.340;12.326;2023-07-13T09:00:14;4.20;;;1.85;;
15996;SDS011;8103;51.340;12.326;2023-07-13T09:02:55;5.80;;;1.60;;
15996;SDS011;8103;51.340;12.326;2023-07-13T09:05:28;3.28;;;1.08;;
15996;SDS011;8103;51.340;12.326;2023-07-13T09:10:39;3.00;;;1.40;;
15996;SDS011;8103;51.340;12.326;2023-07-13T09:15:49;2.10;;;1.38;;
15996;SDS011;8103;51.340;12.326;2023-07-13T09:21:10;3.25;;;1.63;;
15996;SDS011;8103;51.340;12.326;2023-07-13T09:23:44;2.67;;;1.30;;
15996;SDS011;8103;51.340;12.326;2023-07-13T09:26:16;6.28;;;1.55;;
15996;SDS011;8103;51.340;12.326;2023-07-13T09:28:50;4.65;;;1.55;;
15996;SDS011;8103;51.340;12.326;2023-07-13T09:31:34;13.18;;;2.03;;
15996;SDS011;8103;51.340;12.326;2023-07-13T09:34:09;2.85;;;1.48;;
15996;SDS011;8103;51.340;12.326;2023-07-13T09:36:37;4.97;;;1.30;;
15996;SDS011;8103;51.340;12.326;2023-07-13T09:41:40;4.50;;;1.55;;
15996;SDS011;8103;51.340;12.326;2023-07-13T09:44:15;6.63;;;1.42;;
15996;SDS011;8103;51.340;12.326;2023-07-13T09:46:44;2.65;;;1.58;;
15996;SDS011;8103;51.340;12.326;2023-07-13T09:49:13;8.15;;;1.90;;
15996;SDS011;8103;51.340;12.326;2023-07-13T09:51:40;3.97;;;1.70;;
15996;SDS011;8103;51.340;12.326;2023-07-13T09:54:21;3.78;;;2.00;;
15996;SDS011;8103;51.340;12.326;2023-07-13T09:56:54;3.58;;;1.42;;
15996;SDS011;8103;51.340;12.326;2023-07-13T09:59:23;8.35;;;2.13;;
15996;SDS011;8103;51.340;12.326;2023-07-13T10:01:57;3.08;;;1.55;;
15996;SDS011;8103;51.340;12.326;2023-07-13T10:04:32;3.40;;;1.10;;
15996;SDS011;8103;51.340;12.326;2023-07-13T10:07:11;4.57;;;2.20;;
15996;SDS011;8103;51.340;12.326;2023-07-13T10:09:54;8.15;;;2.03;;
15996;SDS011;8103;51.340;12.326;2023-07-13T10:12:28;2.67;;;1.20;;
15996;SDS011;8103;51.340;12.326;2023-07-13T10:14:57;4.78;;;1.70;;
15996;SDS011;8103;51.340;12.326;2023-07-13T10:17:42;3.15;;;1.30;;
15996;SDS011;8103;51.340;12.326;2023-07-13T10:20:11;2.05;;;1.70;;
15996;SDS011;8103;51.340;12.326;2023-07-13T10:22:42;6.32;;;1.95;;
15996;SDS011;8103;51.340;12.326;2023-07-13T10:25:17;5.80;;;1.67;;
15996;SDS011;8103;51.340;12.326;2023-07-13T10:27:47;2.70;;;1.50;;
15996;SDS011;8103;51.340;12.326;2023-07-13T10:30:19;4.38;;;1.55;;
15996;SDS011;8103;51.340;12.326;2023-07-13T10:32:51;2.50;;;1.33;;
15996;SDS011;8103;51.340;12.326;2023-07-13T10:35:20;2.85;;;1.50;;
15996;SDS011;8103;51.340;12.326;2023-07-13T10:37:56;5.50;;;1.75;;
15996;SDS011;8103;51.340;12.326;2023-07-13T10:40:40;4.93;;;1.38;;
15996;SDS011;8103;51.340;12.326;2023-07-13T10:43:16;6.53;;;1.45;;
15996;SDS011;8103;51.340;12.326;2023-07-13T10:45:46;4.78;;;1.40;;
15996;SDS011;8103;51.340;12.326;2023-07-13T10:48:16;4.60;;;1.40;;
15996;SDS011;8103;51.340;12.326;2023-07-13T10:50:44;4.57;;;1.20;;
15996;SDS011;8103;51.340;12.326;2023-07-13T10:53:19;7.22;;;1.70;;
15996;SDS011;8103;51.340;12.326;2023-07-13T10:56:01;5.53;;;1.75;;
15996;SDS011;8103;51.340;12.326;2023-07-13T10:58:38;3.75;;;1.50;;
15996;SDS011;8103;51.340;12.326;2023-07-13T11:01:13;3.33;;;1.20;;
15996;SDS011;8103;51.340;12.326;2023-07-13T11:06:17;2.47;;;1.20;;
15996;SDS011;8103;51.340;12.326;2023-07-13T11:21:29;2.35;;;0.90;;
15996;SDS011;8103;51.340;12.326;2023-07-13T11:26:39;2.42;;;0.93;;
15996;SDS011;8103;51.340;12.326;2023-07-13T11:31:55;4.03;;;1.25;;
15996;SDS011;8103;51.340;12.326;2023-07-13T11:34:30;3.85;;;1.17;;
15996;SDS011;8103;51.340;12.326;2023-07-13T11:37:01;1.63;;;0.70;;
15996;SDS011;8103;51.340;12.326;2023-07-13T11:39:32;2.55;;;1.17;;
15996;SDS011;8103;51.340;12.326;2023-07-13T11:42:16;2.15;;;1.10;;
15996;SDS011;8103;51.340;12.326;2023-07-13T11:44:45;4.53;;;1.25;;
15996;SDS011;8103;51.340;12.326;2023-07-13T11:47:29;1.13;;;1.02;;
15996;SDS011;8103;51.340;12.326;2023-07-13T11:49:57;4.13;;;1.00;;
15996;SDS011;8103;51.340;12.326;2023-07-13T11:52:32;5.88;;;1.05;;
15996;SDS011;8103;51.340;12.326;2023-07-13T11:55:00;1.02;;;0.80;;
15996;SDS011;8103;51.340;12.326;2023-07-13T11:57:29;4.50;;;1.02;;
15996;SDS011;8103;51.340;12.326;2023-07-13T12:00:00;0.70;;;0.60;;
15996;SDS011;8103;51.340;12.326;2023-07-13T12:02:33;4.47;;;0.90;;
15996;SDS011;8103;51.340;12.326;2023-07-13T12:05:05;3.30;;;1.27;;
15996;SDS011;8103;51.340;12.326;2023-07-13T12:07:36;6.07;;;1.35;;
15996;SDS011;8103;51.340;12.326;2023-07-13T12:10:17;4.65;;;1.20;;
15996;SDS011;8103;51.340;12.326;2023-07-13T12:13:04;1.48;;;1.02;;
15996;SDS011;8103;51.340;12.326;2023-07-13T12:15:38;2.53;;;1.20;;
15996;SDS011;8103;51.340;12.326;2023-07-13T12:18:14;1.08;;;0.73;;
15996;SDS011;8103;51.340;12.326;2023-07-13T12:20:44;1.42;;;0.68;;
15996;SDS011;8103;51.340;12.326;2023-07-13T12:23:20;3.13;;;0.85;;
15996;SDS011;8103;51.340;12.326;2023-07-13T12:25:55;4.15;;;1.38;;
15996;SDS011;8103;51.340;12.326;2023-07-13T12:28:38;2.70;;;1.80;;
15996;SDS011;8103;51.340;12.326;2023-07-13T12:37:48;2.28;;;1.10;;
15996;SDS011;8103;51.340;12.326;2023-07-13T12:40:16;1.38;;;1.02;;
15996;SDS011;8103;51.340;12.326;2023-07-13T12:42:51;3.20;;;1.20;;
15996;SDS011;8103;51.340;12.326;2023-07-13T12:45:19;2.38;;;1.00;;
15996;SDS011;8103;51.340;12.326;2023-07-13T12:47:55;2.60;;;0.90;;
15996;SDS011;8103;51.340;12.326;2023-07-13T12:51:10;3.03;;;1.20;;
15996;SDS011;8103;51.340;12.326;2023-07-13T12:53:21;2.80;;;1.13;;
15996;SDS011;8103;51.340;12.326;2023-07-13T12:56:01;2.35;;;0.75;;
15996;SDS011;8103;51.340;12.326;2023-07-13T12:58:36;3.90;;;1.25;;
15996;SDS011;8103;51.340;12.326;2023-07-13T13:01:05;3.42;;;0.90;;
15996;SDS011;8103;51.340;12.326;2023-07-13T13:03:45;1.63;;;1.10;;
15996;SDS011;8103;51.340;12.326;2023-07-13T13:08:45;2.35;;;1.00;;
15996;SDS011;8103;51.340;12.326;2023-07-13T13:11:19;1.52;;;0.85;;
15996;SDS011;8103;51.340;12.326;2023-07-13T13:13:47;4.45;;;0.93;;
15996;SDS011;8103;51.340;12.326;2023-07-13T13:16:29;3.00;;;1.08;;
15996;SDS011;8103;51.340;12.326;2023-07-13T13:19:14;3.50;;;1.80;;
15996;SDS011;8103;51.340;12.326;2023-07-13T13:21:48;1.55;;;0.77;;
15996;SDS011;8103;51.340;12.326;2023-07-13T13:24:19;1.58;;;1.20;;
15996;SDS011;8103;51.340;12.326;2023-07-13T13:26:48;1.38;;;0.77;;
15996;SDS011;8103;51.340;12.326;2023-07-13T13:29:18;4.57;;;0.70;;
15996;SDS011;8103;51.340;12.326;2023-07-13T13:31:53;3.55;;;0.85;;
15996;SDS011;8103;51.340;12.326;2023-07-13T13:34:22;1.90;;;1.13;;
15996;SDS011;8103;51.340;12.326;2023-07-13T13:36:51;4.75;;;1.20;;
15996;SDS011;8103;51.340;12.326;2023-07-13T13:39:33;2.70;;;1.08;;
15996;SDS011;8103;51.340;12.326;2023-07-13T13:42:08;2.80;;;1.35;;
15996;SDS011;8103;51.340;12.326;2023-07-13T13:44:36;2.65;;;0.93;;
15996;SDS011;8103;51.340;12.326;2023-07-13T13:47:02;3.90;;;1.20;;
15996;SDS011;8103;51.340;12.326;2023-07-13T13:49:29;3.10;;;1.15;;
15996;SDS011;8103;51.340;12.326;2023-07-13T13:51:57;1.85;;;1.23;;
15996;SDS011;8103;51.340;12.326;2023-07-13T13:54:24;0.82;;;0.70;;
15996;SDS011;8103;51.340;12.326;2023-07-13T13:56:52;3.40;;;1.05;;
15996;SDS011;8103;51.340;12.326;2023-07-13T13:59:19;4.03;;;1.13;;
15996;SDS011;8103;51.340;12.326;2023-07-13T14:01:47;2.17;;;1.30;;
15996;SDS011;8103;51.340;12.326;2023-07-13T14:04:19;2.47;;;1.83;;
15996;SDS011;8103;51.340;12.326;2023-07-13T14:06:47;4.43;;;1.48;;
15996;SDS011;8103;51.340;12.326;2023-07-13T14:09:16;2.28;;;1.08;;
15996;SDS011;8103;51.340;12.326;2023-07-13T14:11:45;4.40;;;1.10;;
15996;SDS011;8103;51.340;12.326;2023-07-13T14:14:17;1.08;;;0.95;;
15996;SDS011;8103;51.340;12.326;2023-07-13T14:16:46;2.58;;;1.75;;
15996;SDS011;8103;51.340;12.326;2023-07-13T14:19:19;3.42;;;2.65;;
15996;SDS011;8103;51.340;12.326;2023-07-13T14:21:50;1.27;;;1.13;;
15996;SDS011;8103;51.340;12.326;2023-07-13T14:24:19;1.40;;;1.00;;
15996;SDS011;8103;51.340;12.326;2023-07-13T14:26:47;0.90;;;0.80;;
15996;SDS011;8103;51.340;12.326;2023-07-13T14:29:16;1.75;;;0.88;;
15996;SDS011;8103;51.340;12.326;2023-07-13T14:31:48;3.97;;;1.02;;
15996;SDS011;8103;51.340;12.326;2023-07-13T14:34:15;3.40;;;1.05;;
15996;SDS011;8103;51.340;12.326;2023-07-13T14:36:44;2.15;;;1.00;;
15996;SDS011;8103;51.340;12.326;2023-07-13T14:39:18;3.08;;;1.42;;
15996;SDS011;8103;51.340;12.326;2023-07-13T14:41:46;2.42;;;0.80;;
15996;SDS011;8103;51.340;12.326;2023-07-13T14:44:17;1.45;;;1.17;;
15996;SDS011;8103;51.340;12.326;2023-07-13T14:46:47;3.03;;;1.27;;
15996;SDS011;8103;51.340;12.326;2023-07-13T14:52:02;5.03;;;1.67;;
15996;SDS011;8103;51.340;12.326;2023-07-13T14:54:41;2.25;;;1.20;;
15996;SDS011;8103;51.340;12.326;2023-07-13T14:57:14;1.70;;;1.15;;
15996;SDS011;8103;51.340;12.326;2023-07-13T14:59:42;2.90;;;1.77;;
15996;SDS011;8103;51.340;12.326;2023-07-13T15:04:51;5.13;;;1.77;;
15996;SDS011;8103;51.340;12.326;2023-07-13T15:07:18;2.20;;;1.13;;
15996;SDS011;8103;51.340;12.326;2023-07-13T15:09:45;2.70;;;1.30;;
15996;SDS011;8103;51.340;12.326;2023-07-13T15:12:13;4.15;;;2.00;;
15996;SDS011;8103;51.340;12.326;2023-07-13T15:14:40;6.32;;;2.42;;
15996;SDS011;8103;51.340;12.326;2023-07-13T15:17:17;3.22;;;1.80;;
15996;SDS011;8103;51.340;12.326;2023-07-13T15:19:52;3.33;;;1.27;;
15996;SDS011;8103;51.340;12.326;2023-07-13T15:22:19;4.10;;;1.10;;
15996;SDS011;8103;51.340;12.326;2023-07-13T15:24:46;3.08;;;1.10;;
15996;SDS011;8103;51.340;12.326;2023-07-13T15:27:13;2.15;;;1.42;;
15996;SDS011;8103;51.340;12.326;2023-07-13T15:29:40;2.90;;;1.90;;
15996;SDS011;8103;51.340;12.326;2023-07-13T15:32:11;3.53;;;1.65;;
15996;SDS011;8103;51.340;12.326;2023-07-13T15:34:40;4.50;;;2.28;;
15996;SDS011;8103;51.340;12.326;2023-07-13T15:37:11;1.65;;;1.40;;
15996;SDS011;8103;51.340;12.326;2023-07-13T15:39:46;2.63;;;1.30;;
15996;SDS011;8103;51.340;12.326;2023-07-13T15:42:14;2.15;;;1.30;;
15996;SDS011;8103;51.340;12.326;2023-07-13T15:44:42;4.15;;;1.38;;
15996;SDS011;8103;51.340;12.326;2023-07-13T15:47:12;3.40;;;1.30;;
15996;SDS011;8103;51.340;12.326;2023-07-13T15:49:41;2.78;;;1.33;;